| time (UTC) | temp C | wind direction | speed KPH | gust KPH | rain 1hr cm | rain 24hr cm | rain mn cm | humidity % | barometer mb |
| 20260509064550 | 11 | 201 | 9.7 | 16.1 | 0.00 | 0.33 | 0.00 | 94 | 1005.6 |
| 20260509063042 | 11 | 200 | 11.3 | 20.9 | 0.00 | 0.33 | 0.00 | 94 | 1005.7 |
| 20260509061535 | 11 | 203 | 14.5 | 20.9 | 0.00 | 0.33 | 0.00 | 95 | 1005.8 |
| 20260509060033 | 11 | 195 | 12.9 | 22.5 | 0.00 | 0.33 | 0.00 | 94 | 1005.7 |
| 20260509054529 | 11 | 209 | 9.7 | 16.1 | 0.00 | 0.33 | 0.00 | 94 | 1006.0 |
| 20260509053028 | 11 | 217 | 9.7 | 16.1 | 0.00 | 0.33 | 0.00 | 94 | 1005.9 |
| 20260509051533 | 12 | 209 | 11.3 | 16.1 | 0.00 | 0.33 | 0.00 | 94 | 1005.9 |
| 20260509050023 | 12 | 232 | 6.4 | 12.9 | 0.00 | 0.33 | 0.00 | 93 | 1005.9 |
| 20260509044521 | 12 | 215 | 4.8 | 12.9 | 0.00 | 0.33 | 0.00 | 93 | 1006.0 |
| 20260509043019 | 12 | 210 | 4.8 | 9.7 | 0.00 | 0.33 | 0.00 | 93 | 1006.1 |
| 20260509041518 | 12 | 211 | 8.0 | 12.9 | 0.00 | 0.33 | 0.00 | 93 | 1006.0 |
| 20260509040015 | 12 | 208 | 8.0 | 12.9 | 0.00 | 0.33 | 0.00 | 93 | 1006.1 |
| 20260509034535 | 12 | 219 | 8.0 | 11.3 | 0.00 | 0.33 | 0.33 | 92 | 1006.1 |
| 20260509033014 | 12 | 210 | 4.8 | 8.0 | 0.00 | 0.33 | 0.33 | 92 | 1006.2 |
| 20260509031513 | 12 | 210 | 4.8 | 8.0 | 0.00 | 0.33 | 0.33 | 92 | 1006.3 |
| 20260509030015 | 12 | 217 | 3.2 | 8.0 | 0.00 | 0.33 | 0.33 | 92 | 1006.4 |
| 20260509024512 | 12 | 198 | 6.4 | 11.3 | 0.00 | 0.33 | 0.33 | 92 | 1006.3 |
| 20260509023011 | 12 | 214 | 4.8 | 8.0 | 0.00 | 0.33 | 0.33 | 91 | 1006.4 |
| 20260509021511 | 12 | 196 | 4.8 | 8.0 | 0.00 | 0.33 | 0.33 | 91 | 1006.4 |
| 20260509020010 | 12 | 216 | 4.8 | 9.7 | 0.00 | 0.33 | 0.33 | 91 | 1006.2 |
| 20260509014509 | 12 | 221 | 4.8 | 9.7 | 0.00 | 0.33 | 0.33 | 91 | 1006.2 |
| 20260509013009 | 12 | 223 | 3.2 | 8.0 | 0.00 | 0.33 | 0.33 | 90 | 1006.4 |
| 20260509011509 | 12 | 206 | 6.4 | 12.9 | 0.00 | 0.33 | 0.33 | 89 | 1006.3 |
| 20260509010009 | 13 | 194 | 8.0 | 16.1 | 0.00 | 0.33 | 0.33 | 89 | 1006.2 |
| 20260509004506 | 13 | 222 | 8.0 | 16.1 | 0.00 | 0.33 | 0.33 | 88 | 1006.3 |
| 20260509003006 | 13 | 254 | 8.0 | 14.5 | 0.00 | 0.33 | 0.33 | 87 | 1006.3 |
| 20260509001505 | 13 | 249 | 8.0 | 12.9 | 0.00 | 0.33 | 0.33 | 87 | 1006.4 |
| 20260509000004 | 13 | 217 | 9.7 | 16.1 | 0.00 | 0.33 | 0.33 | 86 | 1006.4 |
| 20260508234504 | 13 | 205 | 8.0 | 16.1 | 0.00 | 0.33 | 0.33 | 87 | 1006.4 |
| 20260508233002 | 13 | 205 | 8.0 | 17.7 | 0.00 | 0.33 | 0.33 | 87 | 1006.5 |
| 20260508231502 | 13 | 194 | 8.0 | 16.1 | 0.00 | 0.33 | 0.33 | 87 | 1006.6 |
| 20260508230000 | 13 | 236 | 6.4 | 14.5 | 0.00 | 0.33 | 0.33 | 87 | 1006.6 |
| 20260508224600 | 13 | 207 | 4.8 | 11.3 | 0.00 | 0.33 | 0.33 | 88 | 1006.6 |
| 20260508223059 | 13 | 229 | 6.4 | 17.7 | 0.00 | 0.33 | 0.33 | 89 | 1006.7 |
| 20260508221559 | 13 | 200 | 8.0 | 19.3 | 0.00 | 0.33 | 0.33 | 89 | 1006.7 |
| 20260508220100 | 13 | 206 | 8.0 | 20.9 | 0.00 | 0.33 | 0.33 | 89 | 1006.7 |
| 20260508214607 | 13 | 259 | 11.3 | 22.5 | 0.00 | 0.36 | 0.33 | 89 | 1006.6 |
| 20260508213106 | 13 | 214 | 11.3 | 19.3 | 0.00 | 0.36 | 0.33 | 88 | 1006.6 |
| 20260508211556 | 13 | 211 | 9.7 | 19.3 | 0.00 | 0.36 | 0.33 | 88 | 1006.7 |
| 20260508210055 | 13 | 206 | 11.3 | 22.5 | 0.00 | 0.36 | 0.33 | 89 | 1006.9 |
| 20260508204552 | 13 | 197 | 14.5 | 25.7 | 0.03 | 0.36 | 0.33 | 91 | 1007.1 |
| 20260508203052 | 13 | 204 | 14.5 | 24.1 | 0.05 | 0.36 | 0.33 | 91 | 1007.1 |
| 20260508201549 | 13 | 227 | 8.0 | 17.7 | 0.08 | 0.36 | 0.33 | 90 | 1007.5 |
| 20260508200046 | 13 | 234 | 4.8 | 11.3 | 0.10 | 0.36 | 0.33 | 91 | 1007.8 |
| 20260508194542 | 13 | 175 | 6.4 | 11.3 | 0.18 | 0.33 | 0.30 | 91 | 1008.0 |
| 20260508193050 | 13 | 233 | 6.4 | 16.1 | 0.20 | 0.30 | 0.28 | 91 | 1008.0 |
| 20260508191546 | 13 | 250 | 12.9 | 17.7 | 0.18 | 0.28 | 0.25 | 90 | 1008.3 |
| 20260508190048 | 13 | 236 | 4.8 | 22.5 | 0.18 | 0.25 | 0.23 | 87 | 1008.2 |
| 20260508184535 | 13 | 269 | 8.0 | 22.5 | 0.08 | 0.15 | 0.13 | 81 | 1008.4 |
| 20260508183038 | 15 | 261 | 16.1 | 27.4 | 0.03 | 0.10 | 0.08 | 77 | 1008.2 |
| 20260508181529 | 15 | 242 | 9.7 | 19.3 | 0.03 | 0.10 | 0.08 | 75 | 1008.3 |
| 20260508180029 | 16 | 227 | 9.7 | 22.5 | 0.00 | 0.08 | 0.05 | 67 | 1008.4 |
| 20260508174525 | 16 | 279 | 6.4 | 16.1 | 0.00 | 0.08 | 0.05 | 66 | 1008.5 |
| 20260508173023 | 16 | 206 | 8.0 | 19.3 | 0.00 | 0.08 | 0.05 | 65 | 1008.8 |
| 20260508171521 | 16 | 203 | 8.0 | 20.9 | 0.00 | 0.08 | 0.05 | 65 | 1008.8 |
| 20260508170031 | 16 | 203 | 6.4 | 16.1 | 0.00 | 0.08 | 0.05 | 64 | 1009.1 |
| 20260508164522 | 15 | 232 | 8.0 | 17.7 | 0.00 | 0.08 | 0.05 | 66 | 1009.3 |
| 20260508163017 | 15 | 255 | 9.7 | 19.3 | 0.00 | 0.08 | 0.05 | 65 | 1009.7 |
| 20260508161512 | 15 | 236 | 6.4 | 19.3 | 0.00 | 0.08 | 0.05 | 68 | 1010.0 |
| 20260508160005 | 14 | 221 | 4.8 | 12.9 | 0.00 | 0.08 | 0.05 | 70 | 1010.1 |
| 20260508154504 | 13 | 201 | 11.3 | 20.9 | 0.00 | 0.08 | 0.05 | 69 | 1010.2 |
| 20260508153007 | 13 | 211 | 11.3 | 16.1 | 0.00 | 0.08 | 0.05 | 68 | 1010.2 |
| 20260508151603 | 13 | 269 | 6.4 | 20.9 | 0.00 | 0.08 | 0.05 | 72 | 1010.2 |
| 20260508150058 | 13 | 223 | 6.4 | 17.7 | 0.00 | 0.08 | 0.05 | 72 | 1010.3 |
| 20260508144553 | 12 | 207 | 9.7 | 16.1 | 0.03 | 0.08 | 0.05 | 75 | 1010.4 |
| 20260508143056 | 11 | 211 | 4.8 | 12.9 | 0.03 | 0.08 | 0.05 | 77 | 1010.7 |
| 20260508141600 | 11 | 215 | 4.8 | 9.7 | 0.03 | 0.08 | 0.05 | 81 | 1010.8 |
| 20260508140045 | 11 | 233 | 3.2 | 9.7 | 0.03 | 0.08 | 0.05 | 80 | 1011.0 |
| 20260508134545 | 11 | 234 | 3.2 | 8.0 | 0.00 | 0.05 | 0.03 | 79 | 1011.1 |
| 20260508133045 | 10 | 233 | 3.2 | 8.0 | 0.00 | 0.05 | 0.03 | 80 | 1011.0 |
| 20260508131556 | 11 | 277 | 4.8 | 12.9 | 0.00 | 0.05 | 0.03 | 78 | 1011.2 |
| 20260508130042 | 11 | 222 | 8.0 | 16.1 | 0.00 | 0.05 | 0.03 | 76 | 1010.7 |
| 20260508124539 | 11 | 209 | 9.7 | 16.1 | 0.00 | 0.05 | 0.03 | 77 | 1010.6 |
| 20260508123038 | 10 | 212 | 8.0 | 14.5 | 0.00 | 0.05 | 0.03 | 80 | 1010.8 |
| 20260508121535 | 10 | 204 | 8.0 | 14.5 | 0.00 | 0.05 | 0.03 | 80 | 1010.8 |
| 20260508120036 | 10 | 219 | 6.4 | 12.9 | 0.00 | 0.05 | 0.03 | 82 | 1010.7 |
| 20260508114536 | 10 | 230 | 6.4 | 16.1 | 0.03 | 0.05 | 0.03 | 83 | 1010.7 |
| 20260508113030 | 10 | 210 | 8.0 | 16.1 | 0.03 | 0.05 | 0.03 | 84 | 1010.7 |
| 20260508111528 | 10 | 210 | 6.4 | 16.1 | 0.03 | 0.05 | 0.03 | 83 | 1010.5 |
| 20260508110030 | 10 | 221 | 9.7 | 16.1 | 0.03 | 0.05 | 0.03 | 83 | 1010.4 |
| 20260508104529 | 10 | 219 | 9.7 | 17.7 | 0.00 | 0.03 | 0.00 | 83 | 1010.5 |
| 20260508103032 | 10 | 239 | 11.3 | 19.3 | 0.00 | 0.03 | 0.00 | 80 | 1010.3 |
| 20260508101523 | 10 | 265 | 9.7 | 16.1 | 0.00 | 0.03 | 0.00 | 76 | 1010.5 |
| 20260508100022 | 10 | 259 | 9.7 | 19.3 | 0.00 | 0.03 | 0.00 | 77 | 1010.6 |
| 20260508094524 | 10 | 246 | 8.0 | 14.5 | 0.00 | 0.03 | 0.00 | 77 | 1010.5 |
| 20260508093035 | 10 | 265 | 9.7 | 19.3 | 0.00 | 0.03 | 0.00 | 77 | 1010.3 |
| 20260508091530 | 10 | 199 | 9.7 | 22.5 | 0.00 | 0.03 | 0.00 | 75 | 1010.6 |
| 20260508090019 | 10 | 254 | 11.3 | 29.0 | 0.00 | 0.03 | 0.00 | 76 | 1010.6 |
| 20260508084518 | 10 | 190 | 12.9 | 37.0 | 0.00 | 0.03 | 0.00 | 73 | 1010.8 |
| 20260508083017 | 11 | 235 | 12.9 | 19.3 | 0.00 | 0.03 | 0.00 | 72 | 1010.5 |
| 20260508081517 | 11 | 180 | 8.0 | 17.7 | 0.00 | 0.03 | 0.00 | 73 | 1010.4 |
| 20260508080013 | 10 | 213 | 8.0 | 16.1 | 0.00 | 0.03 | 0.00 | 77 | 1010.3 |
| 20260508074514 | 10 | 248 | 6.4 | 16.1 | 0.00 | 0.03 | 0.00 | 77 | 1010.6 |
| 20260508073012 | 10 | 231 | 9.7 | 20.9 | 0.00 | 0.03 | 0.00 | 75 | 1010.5 |
| 20260508071514 | 10 | 229 | 9.7 | 17.7 | 0.00 | 0.03 | 0.00 | 72 | 1010.8 |
| 20260508070006 | 11 | 215 | 12.9 | 20.9 | 0.00 | 0.03 | 0.00 | 70 | 1010.8 |